sensor_id;sensor_type;location;lat;lon;timestamp;pressure;altitude;pressure_sealevel;temperature;humidity
65880;BME280;52661;51.364;6.054;2023-11-21T00:02:02;100720.09;;;8.15;100.00
65880;BME280;52661;51.364;6.054;2023-11-21T00:04:29;100717.47;;;8.22;100.00
65880;BME280;52661;51.364;6.054;2023-11-21T00:06:54;100719.50;;;8.29;100.00
65880;BME280;52661;51.364;6.054;2023-11-21T00:09:20;100720.59;;;8.24;100.00
65880;BME280;52661;51.364;6.054;2023-11-21T00:11:45;100717.47;;;8.22;100.00
65880;BME280;52661;51.364;6.054;2023-11-21T00:14:11;100717.50;;;8.26;100.00
65880;BME280;52661;51.364;6.054;2023-11-21T00:16:36;100722.19;;;8.29;100.00
65880;BME280;52661;51.364;6.054;2023-11-21T00:19:02;100725.25;;;8.27;100.00
65880;BME280;52661;51.364;6.054;2023-11-21T00:21:27;100728.75;;;8.28;100.00
65880;BME280;52661;51.364;6.054;2023-11-21T00:23:52;100728.31;;;8.26;100.00
65880;BME280;52661;51.364;6.054;2023-11-21T00:26:18;100720.59;;;8.24;100.00
65880;BME280;52661;51.364;6.054;2023-11-21T00:28:43;100725.22;;;8.24;100.00
65880;BME280;52661;51.364;6.054;2023-11-21T00:31:08;100720.97;;;8.23;100.00
65880;BME280;52661;51.364;6.054;2023-11-21T00:33:34;100728.75;;;8.28;100.00
65880;BME280;52661;51.364;6.054;2023-11-21T00:35:59;100735.34;;;8.30;100.00
65880;BME280;52661;51.364;6.054;2023-11-21T00:38:26;100729.56;;;8.32;100.00
65880;BME280;52661;51.364;6.054;2023-11-21T00:40:52;100737.53;;;8.21;100.00
65880;BME280;52661;51.364;6.054;2023-11-21T00:43:21;100731.22;;;8.07;100.00
65880;BME280;52661;51.364;6.054;2023-11-21T00:45:46;100735.50;;;8.11;100.00
65880;BME280;52661;51.364;6.054;2023-11-21T00:48:14;100732.47;;;8.16;100.00
65880;BME280;52661;51.364;6.054;2023-11-21T00:50:40;100742.94;;;8.21;100.00
65880;BME280;52661;51.364;6.054;2023-11-21T00:53:05;100743.34;;;8.20;100.00
65880;BME280;52661;51.364;6.054;2023-11-21T00:55:32;100746.09;;;8.27;100.00
65880;BME280;52661;51.364;6.054;2023-11-21T00:57:58;100740.22;;;8.18;100.00
65880;BME280;52661;51.364;6.054;2023-11-21T01:00:23;100744.94;;;8.24;100.00
65880;BME280;52661;51.364;6.054;2023-11-21T01:02:49;100749.22;;;8.29;100.00
65880;BME280;52661;51.364;6.054;2023-11-21T01:05:14;100745.75;;;8.28;100.00
65880;BME280;52661;51.364;6.054;2023-11-21T01:07:39;100749.59;;;8.27;100.00
65880;BME280;52661;51.364;6.054;2023-11-21T01:10:05;100746.84;;;8.24;100.00
65880;BME280;52661;51.364;6.054;2023-11-21T01:12:34;100753.06;;;8.28;100.00
65880;BME280;52661;51.364;6.054;2023-11-21T01:14:59;100758.13;;;8.29;100.00
65880;BME280;52661;51.364;6.054;2023-11-21T01:17:26;100756.97;;;8.30;100.00
65880;BME280;52661;51.364;6.054;2023-11-21T01:19:51;100769.75;;;8.33;100.00
65880;BME280;52661;51.364;6.054;2023-11-21T01:22:17;100770.53;;;8.34;100.00
65880;BME280;52661;51.364;6.054;2023-11-21T01:24:43;100768.63;;;8.34;100.00
65880;BME280;52661;51.364;6.054;2023-11-21T01:27:08;100767.84;;;8.34;100.00
65880;BME280;52661;51.364;6.054;2023-11-21T01:29:34;100765.91;;;8.34;100.00
65880;BME280;52661;51.364;6.054;2023-11-21T01:32:01;100764.72;;;8.32;100.00
65880;BME280;52661;51.364;6.054;2023-11-21T01:34:27;100765.09;;;8.30;100.00
65880;BME280;52661;51.364;6.054;2023-11-21T01:36:52;100771.69;;;8.33;100.00
65880;BME280;52661;51.364;6.054;2023-11-21T01:39:18;100767.81;;;8.30;100.00
65880;BME280;52661;51.364;6.054;2023-11-21T01:41:49;100771.66;;;8.29;100.00
65880;BME280;52661;51.364;6.054;2023-11-21T01:44:14;100765.13;;;8.34;100.00
65880;BME280;52661;51.364;6.054;2023-11-21T01:46:40;100774.44;;;8.40;100.00
65880;BME280;52661;51.364;6.054;2023-11-21T01:49:06;100773.28;;;8.37;100.00
65880;BME280;52661;51.364;6.054;2023-11-21T01:51:34;100779.09;;;8.39;100.00
65880;BME280;52661;51.364;6.054;2023-11-21T01:53:59;100786.84;;;8.41;100.00
65880;BME280;52661;51.364;6.054;2023-11-21T01:56:25;100783.34;;;8.40;100.00
65880;BME280;52661;51.364;6.054;2023-11-21T01:58:51;100781.41;;;8.37;100.00
65880;BME280;52661;51.364;6.054;2023-11-21T02:01:16;100782.19;;;8.38;100.00
65880;BME280;52661;51.364;6.054;2023-11-21T02:03:43;100784.06;;;8.34;100.00
65880;BME280;52661;51.364;6.054;2023-11-21T02:06:08;100779.81;;;8.36;100.00
65880;BME280;52661;51.364;6.054;2023-11-21T02:08:34;100788.38;;;8.38;100.00
65880;BME280;52661;51.364;6.054;2023-11-21T02:10:59;100782.97;;;8.38;100.00
65880;BME280;52661;51.364;6.054;2023-11-21T02:13:25;100785.25;;;8.36;100.00
65880;BME280;52661;51.364;6.054;2023-11-21T02:15:50;100793.41;;;8.44;100.00
65880;BME280;52661;51.364;6.054;2023-11-21T02:18:17;100790.66;;;8.36;100.00
65880;BME280;52661;51.364;6.054;2023-11-21T02:20:43;100797.94;;;8.32;100.00
65880;BME280;52661;51.364;6.054;2023-11-21T02:23:08;100799.56;;;8.40;100.00
65880;BME280;52661;51.364;6.054;2023-11-21T02:25:33;100795.69;;;8.38;100.00
65880;BME280;52661;51.364;6.054;2023-11-21T02:28:00;100791.47;;;8.40;100.00
65880;BME280;52661;51.364;6.054;2023-11-21T02:30:26;100793.78;;;8.38;100.00
65880;BME280;52661;51.364;6.054;2023-11-21T02:32:53;100799.97;;;8.39;100.00
65880;BME280;52661;51.364;6.054;2023-11-21T02:35:19;100806.50;;;8.38;100.00
65880;BME280;52661;51.364;6.054;2023-11-21T02:37:48;100795.25;;;8.32;100.00
65880;BME280;52661;51.364;6.054;2023-11-21T02:40:13;100799.09;;;8.31;100.00
65880;BME280;52661;51.364;6.054;2023-11-21T02:42:45;100800.59;;;8.29;100.00
65880;BME280;52661;51.364;6.054;2023-11-21T02:45:13;100800.59;;;8.29;100.00
65880;BME280;52661;51.364;6.054;2023-11-21T02:47:41;100805.66;;;8.30;100.00
65880;BME280;52661;51.364;6.054;2023-11-21T02:50:07;100805.13;;;8.21;100.00
65880;BME280;52661;51.364;6.054;2023-11-21T02:52:34;100808.63;;;8.22;100.00
65880;BME280;52661;51.364;6.054;2023-11-21T02:55:03;100807.13;;;8.24;100.00
65880;BME280;52661;51.364;6.054;2023-11-21T02:57:29;100807.09;;;8.21;100.00
65880;BME280;52661;51.364;6.054;2023-11-21T02:59:54;100805.16;;;8.25;100.00
65880;BME280;52661;51.364;6.054;2023-11-21T03:02:20;100807.84;;;8.21;100.00
65880;BME280;52661;51.364;6.054;2023-11-21T03:04:45;100811.28;;;8.18;100.00
65880;BME280;52661;51.364;6.054;2023-11-21T03:07:10;100818.25;;;8.19;100.00
65880;BME280;52661;51.364;6.054;2023-11-21T03:09:36;100818.25;;;8.19;100.00
65880;BME280;52661;51.364;6.054;2023-11-21T03:12:01;100817.53;;;8.26;100.00
65880;BME280;52661;51.364;6.054;2023-11-21T03:14:27;100825.31;;;8.27;100.00
65880;BME280;52661;51.364;6.054;2023-11-21T03:16:52;100826.91;;;8.32;100.00
65880;BME280;52661;51.364;6.054;2023-11-21T03:19:17;100824.88;;;8.25;100.00
65880;BME280;52661;51.364;6.054;2023-11-21T03:21:43;100830.69;;;8.24;100.00
65880;BME280;52661;51.364;6.054;2023-11-21T03:24:08;100836.88;;;8.24;100.00
65880;BME280;52661;51.364;6.054;2023-11-21T03:26:34;100843.75;;;8.22;100.00
65880;BME280;52661;51.364;6.054;2023-11-21T03:28:59;100841.81;;;8.19;100.00
65880;BME280;52661;51.364;6.054;2023-11-21T03:31:25;100841.84;;;8.22;100.00
65880;BME280;52661;51.364;6.054;2023-11-21T03:33:50;100845.78;;;8.28;100.00
65880;BME280;52661;51.364;6.054;2023-11-21T03:36:15;100850.06;;;8.29;100.00
65880;BME280;52661;51.364;6.054;2023-11-21T03:38:41;100857.31;;;8.25;100.00
65880;BME280;52661;51.364;6.054;2023-11-21T03:41:07;100855.03;;;8.27;100.00
65880;BME280;52661;51.364;6.054;2023-11-21T03:43:36;100860.81;;;8.26;100.00
65880;BME280;52661;51.364;6.054;2023-11-21T03:46:02;100849.22;;;8.25;100.00
65880;BME280;52661;51.364;6.054;2023-11-21T03:48:27;100850.78;;;8.26;100.00
65880;BME280;52661;51.364;6.054;2023-11-21T03:50:52;100856.25;;;8.30;100.00
65880;BME280;52661;51.364;6.054;2023-11-21T03:53:18;100855.16;;;8.34;100.00
65880;BME280;52661;51.364;6.054;2023-11-21T03:55:43;100859.00;;;8.33;100.00
65880;BME280;52661;51.364;6.054;2023-11-21T03:58:08;100860.03;;;8.25;100.00
65880;BME280;52661;51.364;6.054;2023-11-21T04:00:34;100854.63;;;8.25;100.00
65880;BME280;52661;51.364;6.054;2023-11-21T04:02:59;100858.84;;;8.23;100.00
65880;BME280;52661;51.364;6.054;2023-11-21T04:05:24;100855.78;;;8.24;100.00
65880;BME280;52661;51.364;6.054;2023-11-21T04:07:50;100861.94;;;8.25;100.00
65880;BME280;52661;51.364;6.054;2023-11-21T04:10:19;100855.03;;;8.27;100.00
65880;BME280;52661;51.364;6.054;2023-11-21T04:12:44;100853.94;;;8.32;100.00
65880;BME280;52661;51.364;6.054;2023-11-21T04:15:10;100859.66;;;8.27;100.00
65880;BME280;52661;51.364;6.054;2023-11-21T04:17:37;100856.63;;;8.28;100.00
65880;BME280;52661;51.364;6.054;2023-11-21T04:20:04;100856.88;;;8.20;100.00
65880;BME280;52661;51.364;6.054;2023-11-21T04:22:41;100870.13;;;8.28;100.00
65880;BME280;52661;51.364;6.054;2023-11-21T04:25:15;100869.31;;;8.24;100.00
65880;BME280;52661;51.364;6.054;2023-11-21T04:27:41;100872.38;;;8.23;100.00
65880;BME280;52661;51.364;6.054;2023-11-21T04:30:13;100877.97;;;8.07;100.00
65880;BME280;52661;51.364;6.054;2023-11-21T04:32:39;100876.38;;;8.03;100.00
65880;BME280;52661;51.364;6.054;2023-11-21T04:35:05;100875.59;;;8.02;100.00
65880;BME280;52661;51.364;6.054;2023-11-21T04:37:30;100879.03;;;7.99;100.00
65880;BME280;52661;51.364;6.054;2023-11-21T04:39:56;100889.47;;;8.01;100.00
65880;BME280;52661;51.364;6.054;2023-11-21T04:42:21;100880.16;;;7.98;100.00
65880;BME280;52661;51.364;6.054;2023-11-21T04:44:47;100884.50;;;8.03;100.00
65880;BME280;52661;51.364;6.054;2023-11-21T04:47:12;100890.19;;;7.98;100.00
65880;BME280;52661;51.364;6.054;2023-11-21T04:49:41;100905.22;;;7.95;100.00
65880;BME280;52661;51.364;6.054;2023-11-21T04:52:07;100900.66;;;7.99;100.00
65880;BME280;52661;51.364;6.054;2023-11-21T04:54:35;100897.53;;;7.97;100.00
65880;BME280;52661;51.364;6.054;2023-11-21T04:57:00;100900.38;;;7.81;100.00
65880;BME280;52661;51.364;6.054;2023-11-21T04:59:26;100911.38;;;7.92;100.00
65880;BME280;52661;51.364;6.054;2023-11-21T05:01:53;100903.78;;;7.75;100.00
65880;BME280;52661;51.364;6.054;2023-11-21T05:04:19;100910.44;;;7.81;100.00
65880;BME280;52661;51.364;6.054;2023-11-21T05:06:44;100916.66;;;7.85;100.00
65880;BME280;52661;51.364;6.054;2023-11-21T05:09:09;100910.91;;;7.86;100.00
65880;BME280;52661;51.364;6.054;2023-11-21T05:11:37;100915.25;;;7.95;100.00
65880;BME280;52661;51.364;6.054;2023-11-21T05:14:03;100922.63;;;7.98;100.00
65880;BME280;52661;51.364;6.054;2023-11-21T05:16:30;100916.00;;;7.91;100.00
65880;BME280;52661;51.364;6.054;2023-11-21T05:18:56;100930.28;;;7.92;100.00
65880;BME280;52661;51.364;6.054;2023-11-21T05:21:28;100925.09;;;7.80;100.00
65880;BME280;52661;51.364;6.054;2023-11-21T05:23:55;100934.03;;;7.84;100.00
65880;BME280;52661;51.364;6.054;2023-11-21T05:26:20;100941.34;;;7.83;100.00
65880;BME280;52661;51.364;6.054;2023-11-21T05:28:46;100948.31;;;7.84;100.00
65880;BME280;52661;51.364;6.054;2023-11-21T05:31:11;100948.00;;;7.89;100.00
65880;BME280;52661;51.364;6.054;2023-11-21T05:33:36;100950.66;;;7.86;100.00
65880;BME280;52661;51.364;6.054;2023-11-21T05:36:02;100950.66;;;7.86;100.00
65880;BME280;52661;51.364;6.054;2023-11-21T05:38:27;100954.28;;;7.97;100.00
65880;BME280;52661;51.364;6.054;2023-11-21T05:40:53;100959.63;;;7.93;100.00
65880;BME280;52661;51.364;6.054;2023-11-21T05:43:19;100962.59;;;7.85;100.00
65880;BME280;52661;51.364;6.054;2023-11-21T05:45:44;100963.44;;;7.89;100.00
65880;BME280;52661;51.364;6.054;2023-11-21T05:48:10;100959.47;;;7.83;100.00
65880;BME280;52661;51.364;6.054;2023-11-21T05:50:35;100955.22;;;7.82;100.00
65880;BME280;52661;51.364;6.054;2023-11-21T05:53:03;100960.66;;;7.85;100.00
65880;BME280;52661;51.364;6.054;2023-11-21T05:55:28;100961.09;;;7.87;100.00
65880;BME280;52661;51.364;6.054;2023-11-21T05:57:53;100964.53;;;7.84;100.00
65880;BME280;52661;51.364;6.054;2023-11-21T06:00:19;100969.94;;;7.84;100.00
65880;BME280;52661;51.364;6.054;2023-11-21T06:02:51;100975.69;;;7.83;100.00
65880;BME280;52661;51.364;6.054;2023-11-21T06:05:23;100977.56;;;7.79;100.00
65880;BME280;52661;51.364;6.054;2023-11-21T06:07:49;100977.50;;;7.75;100.00
65880;BME280;52661;51.364;6.054;2023-11-21T06:10:15;100984.03;;;7.74;100.00
65880;BME280;52661;51.364;6.054;2023-11-21T06:12:40;100984.78;;;7.71;100.00
65880;BME280;52661;51.364;6.054;2023-11-21T06:15:09;100994.44;;;7.72;100.00
65880;BME280;52661;51.364;6.054;2023-11-21T06:17:35;100995.22;;;7.73;100.00
65880;BME280;52661;51.364;6.054;2023-11-21T06:20:05;100999.13;;;7.75;100.00
65880;BME280;52661;51.364;6.054;2023-11-21T06:22:38;100987.19;;;7.76;100.00
65880;BME280;52661;51.364;6.054;2023-11-21T06:25:04;101007.66;;;7.77;100.00
65880;BME280;52661;51.364;6.054;2023-11-21T06:27:32;101005.06;;;7.84;100.00
65880;BME280;52661;51.364;6.054;2023-11-21T06:29:57;101007.44;;;7.89;100.00
65880;BME280;52661;51.364;6.054;2023-11-21T06:32:23;101019.03;;;7.90;100.00
65880;BME280;52661;51.364;6.054;2023-11-21T06:34:48;101013.22;;;7.88;100.00
65880;BME280;52661;51.364;6.054;2023-11-21T06:37:15;101022.59;;;7.94;100.00
65880;BME280;52661;51.364;6.054;2023-11-21T06:39:40;101021.03;;;7.93;100.00
65880;BME280;52661;51.364;6.054;2023-11-21T06:42:05;101022.63;;;7.98;100.00
65880;BME280;52661;51.364;6.054;2023-11-21T06:44:31;101032.25;;;7.95;100.00
65880;BME280;52661;51.364;6.054;2023-11-21T06:46:56;101031.81;;;7.93;100.00
65880;BME280;52661;51.364;6.054;2023-11-21T06:49:21;101043.03;;;7.91;100.00
65880;BME280;52661;51.364;6.054;2023-11-21T06:51:48;101048.81;;;7.93;100.00
65880;BME280;52661;51.364;6.054;2023-11-21T06:54:13;101052.66;;;7.92;100.00
65880;BME280;52661;51.364;6.054;2023-11-21T06:56:39;101058.50;;;7.95;100.00
65880;BME280;52661;51.364;6.054;2023-11-21T06:59:05;101055.84;;;7.98;100.00
65880;BME280;52661;51.364;6.054;2023-11-21T07:01:30;101055.41;;;7.96;100.00
65880;BME280;52661;51.364;6.054;2023-11-21T07:03:59;101063.53;;;7.96;100.00
65880;BME280;52661;51.364;6.054;2023-11-21T07:06:24;101070.94;;;7.99;100.00
65880;BME280;52661;51.364;6.054;2023-11-21T07:08:50;101076.41;;;8.03;100.00
65880;BME280;52661;51.364;6.054;2023-11-21T07:11:15;101081.50;;;8.08;100.00
65880;BME280;52661;51.364;6.054;2023-11-21T07:13:40;101079.56;;;8.08;100.00
65880;BME280;52661;51.364;6.054;2023-11-21T07:16:06;101076.41;;;8.03;100.00
65880;BME280;52661;51.364;6.054;2023-11-21T07:18:31;101084.56;;;8.06;100.00
65880;BME280;52661;51.364;6.054;2023-11-21T07:20:57;101087.34;;;8.10;100.00
65880;BME280;52661;51.364;6.054;2023-11-21T07:23:23;101085.75;;;8.09;100.00
65880;BME280;52661;51.364;6.054;2023-11-21T07:25:49;101091.94;;;8.09;100.00
65880;BME280;52661;51.364;6.054;2023-11-21T07:28:14;101094.22;;;8.07;100.00
65880;BME280;52661;51.364;6.054;2023-11-21T07:30:40;101103.97;;;8.12;100.00
65880;BME280;52661;51.364;6.054;2023-11-21T07:33:05;101103.50;;;8.06;100.00
65880;BME280;52661;51.364;6.054;2023-11-21T07:35:32;101096.94;;;8.07;100.00
65880;BME280;52661;51.364;6.054;2023-11-21T07:37:57;101095.50;;;8.13;100.00
65880;BME280;52661;51.364;6.054;2023-11-21T07:40:23;101105.53;;;8.13;100.00
65880;BME280;52661;51.364;6.054;2023-11-21T07:42:48;101104.75;;;8.12;100.00
65880;BME280;52661;51.364;6.054;2023-11-21T07:45:15;101115.56;;;8.12;100.00
65880;BME280;52661;51.364;6.054;2023-11-21T07:47:40;101122.94;;;8.15;100.00
65880;BME280;52661;51.364;6.054;2023-11-21T07:50:06;101112.84;;;8.12;100.00
65880;BME280;52661;51.364;6.054;2023-11-21T07:52:32;101131.72;;;8.09;100.00
65880;BME280;52661;51.364;6.054;2023-11-21T07:54:58;101124.81;;;8.11;100.00
65880;BME280;52661;51.364;6.054;2023-11-21T07:57:23;101138.31;;;8.11;100.00
65880;BME280;52661;51.364;6.054;2023-11-21T07:59:49;101142.41;;;8.02;100.00
65880;BME280;52661;51.364;6.054;2023-11-21T08:02:14;101146.56;;;7.96;100.00
65880;BME280;52661;51.364;6.054;2023-11-21T08:04:41;101149.28;;;7.96;100.00
65880;BME280;52661;51.364;6.054;2023-11-21T08:07:07;101148.94;;;8.01;100.00
65880;BME280;52661;51.364;6.054;2023-11-21T08:09:32;101150.94;;;8.04;100.00
65880;BME280;52661;51.364;6.054;2023-11-21T08:11:59;101155.56;;;8.03;100.00
65880;BME280;52661;51.364;6.054;2023-11-21T08:14:25;101152.09;;;8.03;100.00
65880;BME280;52661;51.364;6.054;2023-11-21T08:16:51;101163.31;;;8.05;100.00
65880;BME280;52661;51.364;6.054;2023-11-21T08:19:16;101166.81;;;8.05;100.00
65880;BME280;52661;51.364;6.054;2023-11-21T08:21:43;101165.44;;;7.92;100.00
65880;BME280;52661;51.364;6.054;2023-11-21T08:24:08;101169.38;;;7.98;100.00
65880;BME280;52661;51.364;6.054;2023-11-21T08:26:36;101177.34;;;8.10;100.00
65880;BME280;52661;51.364;6.054;2023-11-21T08:29:02;101175.44;;;8.14;100.00
65880;BME280;52661;51.364;6.054;2023-11-21T08:31:27;101180.50;;;8.16;100.00
65880;BME280;52661;51.364;6.054;2023-11-21T08:33:54;101180.16;;;8.17;100.00
65880;BME280;52661;51.364;6.054;2023-11-21T08:36:21;101177.91;;;8.23;100.00
65880;BME280;52661;51.364;6.054;2023-11-21T08:38:49;101184.13;;;8.23;100.00
65880;BME280;52661;51.364;6.054;2023-11-21T08:41:14;101187.94;;;8.22;100.00
65880;BME280;52661;51.364;6.054;2023-11-21T08:43:41;101179.56;;;8.27;100.00
65880;BME280;52661;51.364;6.054;2023-11-21T08:46:07;101187.75;;;8.31;100.00
65880;BME280;52661;51.364;6.054;2023-11-21T08:48:38;101191.84;;;8.25;100.00
65880;BME280;52661;51.364;6.054;2023-11-21T08:51:03;101192.72;;;8.29;100.00
65880;BME280;52661;51.364;6.054;2023-11-21T08:53:29;101192.78;;;8.32;100.00
65880;BME280;52661;51.364;6.054;2023-11-21T08:55:56;101190.50;;;8.34;100.00
65880;BME280;52661;51.364;6.054;2023-11-21T08:58:22;101189.44;;;8.39;100.00
65880;BME280;52661;51.364;6.054;2023-11-21T09:00:47;101194.78;;;8.35;100.00
65880;BME280;52661;51.364;6.054;2023-11-21T09:03:13;101196.78;;;8.38;100.00
65880;BME280;52661;51.364;6.054;2023-11-21T09:05:39;101198.81;;;8.45;100.00
65880;BME280;52661;51.364;6.054;2023-11-21T09:08:04;101206.59;;;8.50;100.00
65880;BME280;52661;51.364;6.054;2023-11-21T09:10:30;101204.28;;;8.49;100.00
65880;BME280;52661;51.364;6.054;2023-11-21T09:12:55;101205.34;;;8.44;100.00
65880;BME280;52661;51.364;6.054;2023-11-21T09:15:21;101211.88;;;8.43;100.00
65880;BME280;52661;51.364;6.054;2023-11-21T09:17:46;101216.53;;;8.43;100.00
65880;BME280;52661;51.364;6.054;2023-11-21T09:20:12;101218.81;;;8.40;100.00
65880;BME280;52661;51.364;6.054;2023-11-21T09:22:39;101224.22;;;8.40;100.00
65880;BME280;52661;51.364;6.054;2023-11-21T09:25:05;101230.06;;;8.43;100.00
65880;BME280;52661;51.364;6.054;2023-11-21T09:27:32;101237.03;;;8.44;100.00
65880;BME280;52661;51.364;6.054;2023-11-21T09:29:57;101227.84;;;8.48;100.00
65880;BME280;52661;51.364;6.054;2023-11-21T09:32:23;101239.00;;;8.47;100.00
65880;BME280;52661;51.364;6.054;2023-11-21T09:34:50;101239.84;;;8.51;100.00
65880;BME280;52661;51.364;6.054;2023-11-21T09:37:16;101241.00;;;8.50;100.00
65880;BME280;52661;51.364;6.054;2023-11-21T09:39:41;101246.47;;;8.53;100.00
65880;BME280;52661;51.364;6.054;2023-11-21T09:42:17;101243.09;;;8.60;100.00
65880;BME280;52661;51.364;6.054;2023-11-21T09:47:39;101259.75;;;8.62;100.00
65880;BME280;52661;51.364;6.054;2023-11-21T09:50:05;101249.81;;;8.69;100.00
65880;BME280;52661;51.364;6.054;2023-11-21T09:52:44;101255.28;;;8.73;100.00
65880;BME280;52661;51.364;6.054;2023-11-21T09:55:15;101261.13;;;8.75;100.00
65880;BME280;52661;51.364;6.054;2023-11-21T09:57:44;101248.69;;;8.70;100.00
65880;BME280;52661;51.364;6.054;2023-11-21T10:00:11;101254.50;;;8.72;100.00
65880;BME280;52661;51.364;6.054;2023-11-21T10:02:38;101254.56;;;8.76;100.00
65880;BME280;52661;51.364;6.054;2023-11-21T10:05:06;101267.50;;;8.86;100.00
65880;BME280;52661;51.364;6.054;2023-11-21T10:07:34;101272.91;;;8.86;100.00
65880;BME280;52661;51.364;6.054;2023-11-21T10:10:00;101272.19;;;8.89;100.00
65880;BME280;52661;51.364;6.054;2023-11-21T10:12:28;101270.22;;;8.86;100.00
65880;BME280;52661;51.364;6.054;2023-11-21T10:14:54;101272.53;;;8.87;100.00
65880;BME280;52661;51.364;6.054;2023-11-21T10:17:22;101280.78;;;8.95;100.00
65880;BME280;52661;51.364;6.054;2023-11-21T10:19:52;101286.25;;;8.98;100.00
65880;BME280;52661;51.364;6.054;2023-11-21T10:22:19;101290.16;;;9.01;100.00
65880;BME280;52661;51.364;6.054;2023-11-21T10:24:45;101289.78;;;9.02;100.00
65880;BME280;52661;51.364;6.054;2023-11-21T10:27:11;101277.03;;;9.03;100.00
65880;BME280;52661;51.364;6.054;2023-11-21T10:29:36;101288.66;;;9.03;100.00
65880;BME280;52661;51.364;6.054;2023-11-21T10:32:02;101280.63;;;9.10;100.00
65880;BME280;52661;51.364;6.054;2023-11-21T10:34:28;101292.31;;;9.14;100.00
65880;BME280;52661;51.364;6.054;2023-11-21T10:36:54;101290.78;;;9.17;100.00
65880;BME280;52661;51.364;6.054;2023-11-21T10:39:23;101289.75;;;9.25;100.00
65880;BME280;52661;51.364;6.054;2023-11-21T10:41:53;101297.94;;;9.28;100.00
65880;BME280;52661;51.364;6.054;2023-11-21T10:44:20;101302.50;;;9.24;100.00
65880;BME280;52661;51.364;6.054;2023-11-21T10:46:48;101305.94;;;9.21;100.00
65880;BME280;52661;51.364;6.054;2023-11-21T10:49:19;101302.88;;;9.23;100.00
65880;BME280;52661;51.364;6.054;2023-11-21T10:51:45;101301.31;;;9.22;100.00
65880;BME280;52661;51.364;6.054;2023-11-21T10:54:11;101300.16;;;9.23;100.00
65880;BME280;52661;51.364;6.054;2023-11-21T10:56:39;101298.47;;;9.11;100.00
65880;BME280;52661;51.364;6.054;2023-11-21T10:59:09;101302.47;;;9.21;100.00
65880;BME280;52661;51.364;6.054;2023-11-21T11:01:42;101303.34;;;9.28;100.00
65880;BME280;52661;51.364;6.054;2023-11-21T11:04:09;101301.41;;;9.29;100.00
65880;BME280;52661;51.364;6.054;2023-11-21T11:06:43;101304.53;;;9.31;100.00
65880;BME280;52661;51.364;6.054;2023-11-21T11:09:11;101306.47;;;9.30;100.00
65880;BME280;52661;51.364;6.054;2023-11-21T11:11:39;101310.38;;;9.33;100.00
65880;BME280;52661;51.364;6.054;2023-11-21T11:14:09;101311.47;;;9.28;100.00
65880;BME280;52661;51.364;6.054;2023-11-21T11:16:36;101316.06;;;9.24;100.00
65880;BME280;52661;51.364;6.054;2023-11-21T11:19:02;101318.72;;;9.21;100.00
65880;BME280;52661;51.364;6.054;2023-11-21T11:22:03;101321.41;;;9.21;100.00
65880;BME280;52661;51.364;6.054;2023-11-21T11:25:07;101325.31;;;9.23;100.00
65880;BME280;52661;51.364;6.054;2023-11-21T11:27:54;101313.34;;;9.24;100.00
65880;BME280;52661;51.364;6.054;2023-11-21T11:38:22;101308.81;;;9.32;100.00
65880;BME280;52661;51.364;6.054;2023-11-21T11:40:52;101315.44;;;9.34;100.00
65880;BME280;52661;51.364;6.054;2023-11-21T11:43:27;101325.53;;;9.37;100.00
65880;BME280;52661;51.364;6.054;2023-11-21T11:45:55;101342.22;;;9.39;100.00
65880;BME280;52661;51.364;6.054;2023-11-21T11:48:22;101334.03;;;9.36;100.00
65880;BME280;52661;51.364;6.054;2023-11-21T11:51:10;101348.72;;;9.35;100.00
65880;BME280;52661;51.364;6.054;2023-11-21T11:53:41;101338.63;;;9.32;100.00
65880;BME280;52661;51.364;6.054;2023-11-21T11:58:53;101333.59;;;9.34;100.00
65880;BME280;52661;51.364;6.054;2023-11-21T12:01:20;101346.41;;;9.37;100.00
65880;BME280;52661;51.364;6.054;2023-11-21T12:06:42;101347.63;;;9.39;100.00
65880;BME280;52661;51.364;6.054;2023-11-21T12:09:19;101355.06;;;9.46;100.00
65880;BME280;52661;51.364;6.054;2023-11-21T12:11:46;101364.28;;;9.42;100.00
65880;BME280;52661;51.364;6.054;2023-11-21T12:14:13;101370.09;;;9.40;100.00
65880;BME280;52661;51.364;6.054;2023-11-21T12:16:38;101368.09;;;9.37;100.00
65880;BME280;52661;51.364;6.054;2023-11-21T12:19:04;101371.97;;;9.36;100.00
65880;BME280;52661;51.364;6.054;2023-11-21T12:21:30;101377.38;;;9.36;100.00
65880;BME280;52661;51.364;6.054;2023-11-21T12:23:57;101378.50;;;9.35;100.00
65880;BME280;52661;51.364;6.054;2023-11-21T12:26:24;101386.28;;;9.36;100.00
65880;BME280;52661;51.364;6.054;2023-11-21T12:28:55;101388.94;;;9.33;100.00
65880;BME280;52661;51.364;6.054;2023-11-21T12:31:24;101401.66;;;9.29;100.00
65880;BME280;52661;51.364;6.054;2023-11-21T12:33:50;101398.56;;;9.30;100.00
65880;BME280;52661;51.364;6.054;2023-11-21T12:36:16;101392.31;;;9.26;100.00
65880;BME280;52661;51.364;6.054;2023-11-21T12:38:41;101394.66;;;9.28;100.00
65880;BME280;52661;51.364;6.054;2023-11-21T12:41:07;101389.25;;;9.28;100.00
65880;BME280;52661;51.364;6.054;2023-11-21T12:43:33;101402.84;;;9.31;100.00
65880;BME280;52661;51.364;6.054;2023-11-21T12:46:07;101402.13;;;9.34;100.00
65880;BME280;52661;51.364;6.054;2023-11-21T12:48:32;101411.25;;;9.26;100.00
65880;BME280;52661;51.364;6.054;2023-11-21T12:50:58;101409.41;;;9.30;100.00
65880;BME280;52661;51.364;6.054;2023-11-21T12:53:26;101408.25;;;9.31;100.00
65880;BME280;52661;51.364;6.054;2023-11-21T12:55:51;101403.97;;;9.30;100.00
65880;BME280;52661;51.364;6.054;2023-11-21T12:58:17;101406.41;;;9.35;100.00
65880;BME280;52661;51.364;6.054;2023-11-21T13:00:46;101406.06;;;9.40;100.00
65880;BME280;52661;51.364;6.054;2023-11-21T13:03:13;101411.09;;;9.38;100.00
65880;BME280;52661;51.364;6.054;2023-11-21T13:05:42;101405.31;;;9.40;100.00